createdAt,value
2017-12-14T00:00:40.011Z,0
2017-12-14T00:01:40.294Z,0
2017-12-14T00:02:39.708Z,0
2017-12-14T00:03:39.699Z,0
2017-12-14T00:04:39.698Z,0
2017-12-14T00:05:40.756Z,0
2017-12-14T00:06:39.907Z,0
2017-12-14T00:07:39.643Z,0
2017-12-14T00:08:39.883Z,0
2017-12-14T00:09:40.131Z,0
2017-12-14T00:10:39.836Z,0
2017-12-14T00:11:39.546Z,0
2017-12-14T00:12:39.809Z,0
2017-12-14T00:13:39.513Z,0
2017-12-14T00:14:40.047Z,0
2017-12-14T00:15:40.037Z,0
2017-12-14T00:16:39.745Z,0
2017-12-14T00:17:39.455Z,0
2017-12-14T00:18:39.450Z,0
2017-12-14T00:19:39.727Z,0
2017-12-14T00:20:39.666Z,0
2017-12-14T00:21:39.649Z,0
2017-12-14T00:22:39.639Z,0
2017-12-14T00:23:39.617Z,0
2017-12-14T00:24:39.911Z,0
2017-12-14T00:25:39.865Z,0
2017-12-14T00:26:39.561Z,0
2017-12-14T00:27:39.572Z,0
2017-12-14T00:28:39.815Z,0
2017-12-14T00:29:39.240Z,0
2017-12-14T00:30:39.497Z,0
2017-12-14T00:31:39.758Z,0
2017-12-14T00:32:39.487Z,0
2017-12-14T00:33:39.500Z,0
2017-12-14T00:34:39.783Z,0
2017-12-14T00:35:39.970Z,0
2017-12-14T00:36:39.407Z,0
2017-12-14T00:37:39.450Z,0
2017-12-14T00:38:39.365Z,0
2017-12-14T00:39:39.329Z,0
2017-12-14T00:40:39.858Z,0
2017-12-14T00:41:39.044Z,0
2017-12-14T00:42:39.282Z,0
2017-12-14T00:43:39.037Z,0
2017-12-14T00:44:39.529Z,0
2017-12-14T00:45:39.229Z,0
2017-12-14T00:46:39.208Z,0
2017-12-14T00:47:38.935Z,0
2017-12-14T00:48:38.908Z,0
2017-12-14T00:49:38.891Z,0
2017-12-14T00:50:39.442Z,0
2017-12-14T00:51:38.853Z,0
2017-12-14T00:52:38.841Z,0
2017-12-14T00:53:39.356Z,0
2017-12-14T00:54:38.802Z,0
2017-12-14T00:55:39.060Z,0
2017-12-14T00:56:39.066Z,0
2017-12-14T00:57:39.026Z,0
2017-12-14T00:58:39.295Z,0
2017-12-14T00:59:39.339Z,0
2017-12-14T01:00:38.725Z,0
2017-12-14T01:01:38.958Z,0
2017-12-14T01:02:38.946Z,0
2017-12-14T01:03:39.481Z,0
2017-12-14T01:04:39.174Z,0
2017-12-14T01:05:39.190Z,0
2017-12-14T01:06:38.610Z,0
2017-12-14T01:07:39.131Z,0
2017-12-14T01:08:39.124Z,0
2017-12-14T01:09:38.822Z,0
2017-12-14T01:10:39.110Z,0
2017-12-14T01:11:39.087Z,0
2017-12-14T01:12:38.769Z,0
2017-12-14T01:13:39.477Z,0
2017-12-14T01:14:38.750Z,0
2017-12-14T01:15:39.028Z,0
2017-12-14T01:16:38.703Z,0
2017-12-14T01:17:38.964Z,0
2017-12-14T01:18:38.951Z,0
2017-12-14T01:19:38.646Z,0
2017-12-14T01:20:38.907Z,0
2017-12-14T01:21:38.612Z,0
2017-12-14T01:22:38.593Z,0
2017-12-14T01:23:38.580Z,0
2017-12-14T01:24:38.558Z,0
2017-12-14T01:25:38.271Z,0
2017-12-14T01:26:38.246Z,0
2017-12-14T01:27:38.784Z,0
2017-12-14T01:28:38.494Z,0
2017-12-14T01:29:38.491Z,0
2017-12-14T01:30:39.004Z,0
2017-12-14T01:31:38.167Z,0
2017-12-14T01:32:38.147Z,0
2017-12-14T01:33:38.401Z,0
2017-12-14T01:34:38.112Z,0
2017-12-14T01:35:38.644Z,0
2017-12-14T01:36:38.631Z,0
2017-12-14T01:37:38.875Z,0
2017-12-14T01:38:38.856Z,0
2017-12-14T01:39:38.310Z,0
2017-12-14T01:40:38.006Z,0
2017-12-14T01:41:38.002Z,0
2017-12-14T01:42:37.975Z,0
2017-12-14T01:43:38.497Z,0
2017-12-14T01:44:38.237Z,0
2017-12-14T01:45:38.747Z,0
2017-12-14T01:46:38.448Z,0
2017-12-14T01:47:38.446Z,0
2017-12-14T01:48:38.143Z,0
2017-12-14T01:49:38.678Z,0
2017-12-14T01:50:38.126Z,0
2017-12-14T01:51:38.374Z,0
2017-12-14T01:52:38.077Z,0
2017-12-14T01:53:38.089Z,0
2017-12-14T01:54:37.771Z,0
2017-12-14T01:55:38.339Z,0
2017-12-14T01:56:38.010Z,0
2017-12-14T01:57:37.722Z,0
2017-12-14T01:58:37.967Z,0
2017-12-14T01:59:38.260Z,0
2017-12-14T02:00:37.955Z,0
2017-12-14T02:01:37.933Z,0
2017-12-14T02:02:37.917Z,0
2017-12-14T02:03:37.607Z,0
2017-12-14T02:04:37.862Z,0
2017-12-14T02:05:38.128Z,0
2017-12-14T02:06:38.106Z,0
2017-12-14T02:07:38.126Z,0
2017-12-14T02:08:37.794Z,0
2017-12-14T02:09:38.051Z,0
2017-12-14T02:10:37.526Z,0
2017-12-14T02:11:38.002Z,0
2017-12-14T02:12:38.462Z,0
2017-12-14T02:13:37.813Z,0
2017-12-14T02:14:38.229Z,0
2017-12-14T02:15:37.665Z,0
2017-12-14T02:16:38.207Z,0
2017-12-14T02:17:37.365Z,0
2017-12-14T02:18:37.886Z,0
2017-12-14T02:19:37.610Z,0
2017-12-14T02:20:37.584Z,0
2017-12-14T02:21:37.597Z,0
2017-12-14T02:22:37.823Z,0
2017-12-14T02:23:37.258Z,0
2017-12-14T02:24:37.561Z,0
2017-12-14T02:25:37.495Z,0
2017-12-14T02:26:37.476Z,0
2017-12-14T02:27:37.456Z,0
2017-12-14T02:28:37.170Z,0
2017-12-14T02:29:37.170Z,0
2017-12-14T02:30:37.423Z,0
2017-12-14T02:31:37.672Z,0
2017-12-14T02:32:37.385Z,0
2017-12-14T02:33:37.082Z,0
2017-12-14T02:34:38.167Z,0
2017-12-14T02:35:37.879Z,0
2017-12-14T02:36:37.577Z,0
2017-12-14T02:37:37.569Z,0
2017-12-14T02:38:37.566Z,0
2017-12-14T02:39:37.261Z,0
2017-12-14T02:40:37.781Z,0
2017-12-14T02:41:37.501Z,0
2017-12-14T02:42:37.516Z,0
2017-12-14T02:43:37.515Z,0
2017-12-14T02:44:37.173Z,0
2017-12-14T02:45:37.434Z,0
2017-12-14T02:46:37.132Z,0
2017-12-14T02:47:37.137Z,0
2017-12-14T02:48:36.838Z,0
2017-12-14T02:49:37.358Z,0
2017-12-14T02:50:37.341Z,0
2017-12-14T02:51:37.359Z,0
2017-12-14T02:52:37.034Z,0
2017-12-14T02:53:37.301Z,0
2017-12-14T02:54:37.890Z,0
2017-12-14T02:55:36.978Z,0
2017-12-14T02:56:36.966Z,0
2017-12-14T02:57:36.690Z,0
2017-12-14T02:58:36.926Z,0
2017-12-14T02:59:37.200Z,0
2017-12-14T03:00:36.635Z,0
2017-12-14T03:01:37.423Z,0
2017-12-14T03:02:36.884Z,0
2017-12-14T03:03:36.846Z,0
2017-12-14T03:04:36.827Z,0
2017-12-14T03:05:36.815Z,0
2017-12-14T03:06:36.824Z,0
2017-12-14T03:07:37.045Z,0
2017-12-14T03:08:37.313Z,0
2017-12-14T03:09:36.762Z,0
2017-12-14T03:10:36.764Z,0
2017-12-14T03:11:36.711Z,0
2017-12-14T03:12:36.721Z,0
2017-12-14T03:13:36.941Z,0
2017-12-14T03:14:36.925Z,0
2017-12-14T03:15:36.907Z,0
2017-12-14T03:16:36.629Z,0
2017-12-14T03:17:36.648Z,0
2017-12-14T03:18:36.332Z,0
2017-12-14T03:19:36.299Z,0
2017-12-14T03:20:36.555Z,0
2017-12-14T03:21:36.552Z,0
2017-12-14T03:22:36.528Z,0
2017-12-14T03:23:36.257Z,0
2017-12-14T03:24:36.236Z,0
2017-12-14T03:25:36.481Z,0
2017-12-14T03:26:36.450Z,0
2017-12-14T03:27:36.165Z,0
2017-12-14T03:28:36.436Z,0
2017-12-14T03:29:36.673Z,0
2017-12-14T03:30:36.677Z,0
2017-12-14T03:31:36.369Z,0
2017-12-14T03:32:36.354Z,0
2017-12-14T03:33:36.351Z,0
2017-12-14T03:34:36.322Z,0
2017-12-14T03:35:36.297Z,0
2017-12-14T03:36:36.571Z,0
2017-12-14T03:37:36.010Z,0
2017-12-14T03:38:36.096Z,0
2017-12-14T03:39:36.909Z,0
2017-12-14T03:40:35.944Z,0
2017-12-14T03:41:36.483Z,0
2017-12-14T03:42:51.051Z,0
2017-12-14T03:43:36.713Z,0
2017-12-14T03:44:36.701Z,0
2017-12-14T03:45:36.135Z,0
2017-12-14T03:46:36.407Z,0
2017-12-14T03:47:36.642Z,0
2017-12-14T03:48:36.369Z,0
2017-12-14T03:49:36.631Z,0
2017-12-14T03:50:35.803Z,0
2017-12-14T03:51:36.029Z,0
2017-12-14T03:52:36.292Z,0
2017-12-14T03:53:36.287Z,0
2017-12-14T03:54:36.000Z,0
2017-12-14T03:55:36.517Z,0
2017-12-14T03:56:35.687Z,0
2017-12-14T03:57:35.945Z,0
2017-12-14T03:58:35.662Z,0
2017-12-14T03:59:35.897Z,0
2017-12-14T04:00:35.881Z,0
2017-12-14T04:01:35.602Z,0
2017-12-14T04:02:35.573Z,0
2017-12-14T04:03:36.105Z,0
2017-12-14T04:04:36.082Z,0
2017-12-14T04:05:35.793Z,0
2017-12-14T04:06:36.542Z,0
2017-12-14T04:07:36.313Z,0
2017-12-14T04:08:36.006Z,0
2017-12-14T04:09:35.726Z,0
2017-12-14T04:10:35.730Z,0
2017-12-14T04:11:35.976Z,0
2017-12-14T04:12:35.692Z,0
2017-12-14T04:13:36.213Z,0
2017-12-14T04:14:35.660Z,0
2017-12-14T04:15:35.898Z,0
2017-12-14T04:16:35.612Z,0
2017-12-14T04:17:35.623Z,0
2017-12-14T04:18:35.620Z,0
2017-12-14T04:19:35.567Z,0
2017-12-14T04:20:35.894Z,0
2017-12-14T04:21:35.540Z,0
2017-12-14T04:22:35.801Z,0
2017-12-14T04:23:35.225Z,0
2017-12-14T04:24:35.497Z,0
2017-12-14T04:25:35.455Z,0
2017-12-14T04:26:35.713Z,0
2017-12-14T04:27:35.174Z,0
2017-12-14T04:28:35.412Z,0
2017-12-14T04:29:35.396Z,0
2017-12-14T04:30:35.668Z,0
2017-12-14T04:31:35.103Z,0
2017-12-14T04:32:35.919Z,0
2017-12-14T04:33:35.615Z,0
2017-12-14T04:34:35.307Z,0
2017-12-14T04:35:35.433Z,0
2017-12-14T04:36:35.303Z,0
2017-12-14T04:37:35.290Z,0
2017-12-14T04:38:35.529Z,0
2017-12-14T04:39:35.237Z,0
2017-12-14T04:40:35.221Z,0
2017-12-14T04:41:35.195Z,0
2017-12-14T04:42:35.509Z,0
2017-12-14T04:43:35.438Z,0
2017-12-14T04:44:35.429Z,0
2017-12-14T04:45:35.677Z,0
2017-12-14T04:46:35.700Z,0
2017-12-14T04:47:35.380Z,0
2017-12-14T04:48:35.087Z,0
2017-12-14T04:49:35.358Z,0
2017-12-14T04:50:35.062Z,0
2017-12-14T04:51:35.042Z,0
2017-12-14T04:52:35.316Z,0
2017-12-14T04:53:34.995Z,0
2017-12-14T04:54:34.704Z,0
2017-12-14T04:55:35.246Z,0
2017-12-14T04:56:34.672Z,0
2017-12-14T04:57:34.935Z,0
2017-12-14T04:58:34.643Z,0
2017-12-14T04:59:34.890Z,0
2017-12-14T05:00:35.171Z,0
2017-12-14T05:01:34.859Z,0
2017-12-14T05:02:34.575Z,0
2017-12-14T05:03:34.832Z,0
2017-12-14T05:04:35.111Z,0
2017-12-14T05:05:34.794Z,0
2017-12-14T05:06:35.331Z,0
2017-12-14T05:07:34.499Z,0
2017-12-14T05:08:35.278Z,0
2017-12-14T05:09:35.008Z,0
2017-12-14T05:10:34.753Z,0
2017-12-14T05:11:34.421Z,0
2017-12-14T05:12:35.037Z,0
2017-12-14T05:13:34.384Z,0
2017-12-14T05:14:34.642Z,0
2017-12-14T05:15:35.195Z,0
2017-12-14T05:16:34.610Z,0
2017-12-14T05:17:35.409Z,0
2017-12-14T05:18:34.886Z,0
2017-12-14T05:19:34.568Z,0
2017-12-14T05:20:34.822Z,0
2017-12-14T05:21:34.819Z,0
2017-12-14T05:22:34.519Z,0
2017-12-14T05:23:34.492Z,0
2017-12-14T05:24:34.486Z,0
2017-12-14T05:25:34.722Z,0
2017-12-14T05:26:34.441Z,0
2017-12-14T05:27:34.442Z,0
2017-12-14T05:28:34.399Z,0
2017-12-14T05:29:34.668Z,0
2017-12-14T05:30:34.934Z,0
2017-12-14T05:31:34.366Z,0
2017-12-14T05:32:34.345Z,0
2017-12-14T05:33:34.367Z,0
2017-12-14T05:34:34.600Z,0
2017-12-14T05:35:34.836Z,0
2017-12-14T05:36:34.816Z,0
2017-12-14T05:37:34.255Z,0
2017-12-14T05:38:34.797Z,0
2017-12-14T05:39:34.227Z,0
2017-12-14T05:40:34.205Z,0
2017-12-14T05:41:33.939Z,0
2017-12-14T05:42:34.180Z,0
2017-12-14T05:43:34.450Z,0
2017-12-14T05:44:34.433Z,0
2017-12-14T05:45:34.682Z,0
2017-12-14T05:46:34.416Z,0
2017-12-14T05:47:34.099Z,0
2017-12-14T05:48:34.401Z,0
2017-12-14T05:49:34.338Z,0
2017-12-14T05:50:34.317Z,0
2017-12-14T05:51:34.300Z,0
2017-12-14T05:52:33.753Z,0
2017-12-14T05:53:33.993Z,0
2017-12-14T05:54:33.968Z,0
2017-12-14T05:55:33.952Z,0
2017-12-14T05:56:34.216Z,0
2017-12-14T05:57:34.225Z,0
2017-12-14T05:58:33.912Z,0
2017-12-14T05:59:33.888Z,0
2017-12-14T06:00:34.416Z,0
2017-12-14T06:01:34.149Z,0
2017-12-14T06:02:34.160Z,0
2017-12-14T06:03:33.821Z,0
2017-12-14T06:04:34.077Z,0
2017-12-14T06:05:33.801Z,0
2017-12-14T06:06:34.047Z,0
2017-12-14T06:07:34.317Z,0
2017-12-14T06:08:33.465Z,0
2017-12-14T06:09:33.474Z,0
2017-12-14T06:10:33.732Z,0
2017-12-14T06:11:33.438Z,0
2017-12-14T06:12:33.399Z,0
2017-12-14T06:13:33.926Z,0
2017-12-14T06:14:33.375Z,0
2017-12-14T06:15:33.351Z,0
2017-12-14T06:16:33.612Z,0
2017-12-14T06:17:33.604Z,0
2017-12-14T06:18:33.585Z,0
2017-12-14T06:19:34.233Z,0
2017-12-14T06:20:33.538Z,0
2017-12-14T06:21:33.813Z,0
2017-12-14T06:22:33.778Z,0
2017-12-14T06:23:34.041Z,0
2017-12-14T06:24:33.474Z,0
2017-12-14T06:25:33.452Z,0
2017-12-14T06:26:33.168Z,0
2017-12-14T06:27:33.693Z,0
2017-12-14T06:28:33.438Z,0
2017-12-14T06:29:33.927Z,0
2017-12-14T06:30:33.653Z,0
2017-12-14T06:31:33.908Z,0
2017-12-14T06:32:33.351Z,0
2017-12-14T06:33:33.061Z,0
2017-12-14T06:34:33.031Z,0
2017-12-14T06:35:33.008Z,0
2017-12-14T06:36:33.531Z,0
2017-12-14T06:37:33.285Z,0
2017-12-14T06:38:33.239Z,0
2017-12-14T06:39:33.484Z,0
2017-12-14T06:40:33.226Z,0
2017-12-14T06:41:33.183Z,0
2017-12-14T06:42:33.725Z,0
2017-12-14T06:43:33.145Z,0
2017-12-14T06:44:33.433Z,0
2017-12-14T06:45:32.867Z,0
2017-12-14T06:46:32.824Z,0
2017-12-14T06:47:32.833Z,0
2017-12-14T06:48:32.790Z,0
2017-12-14T06:49:33.048Z,0
2017-12-14T06:50:33.035Z,0
2017-12-14T06:51:33.590Z,0
2017-12-14T06:52:33.801Z,0
2017-12-14T06:53:32.706Z,0
2017-12-14T06:54:32.683Z,0
2017-12-14T06:55:33.206Z,0
2017-12-14T06:56:32.647Z,0
2017-12-14T06:57:33.176Z,0
2017-12-14T06:58:32.900Z,0
2017-12-14T06:59:32.869Z,0
2017-12-14T07:00:32.587Z,0
2017-12-14T07:01:32.556Z,0
2017-12-14T07:02:33.090Z,0
2017-12-14T07:03:32.796Z,0
2017-12-14T07:04:32.510Z,0
2017-12-14T07:05:32.783Z,0
2017-12-14T07:06:32.757Z,0
2017-12-14T07:07:32.759Z,5
2017-12-14T07:08:32.732Z,0
2017-12-14T07:09:32.717Z,5
2017-12-14T07:10:33.215Z,5
2017-12-14T07:11:32.383Z,5
2017-12-14T07:12:32.910Z,5
2017-12-14T07:13:33.172Z,5
2017-12-14T07:14:32.335Z,5
2017-12-14T07:15:32.863Z,5
2017-12-14T07:16:33.122Z,10
2017-12-14T07:17:32.830Z,10
2017-12-14T07:18:32.536Z,10
2017-12-14T07:19:32.788Z,10
2017-12-14T07:20:32.508Z,10
2017-12-14T07:21:32.782Z,10
2017-12-14T07:22:32.740Z,15
2017-12-14T07:23:32.722Z,15
2017-12-14T07:24:32.432Z,15
2017-12-14T07:25:32.412Z,20
2017-12-14T07:26:32.392Z,20
2017-12-14T07:27:32.653Z,20
2017-12-14T07:28:32.954Z,25
2017-12-14T07:29:32.362Z,35
2017-12-14T07:30:32.059Z,40
2017-12-14T07:31:32.605Z,45
2017-12-14T07:32:32.348Z,45
2017-12-14T07:33:32.292Z,35
2017-12-14T07:34:32.526Z,25
2017-12-14T07:35:32.522Z,20
2017-12-14T07:36:32.511Z,30
2017-12-14T07:37:32.198Z,35
2017-12-14T07:38:32.184Z,35
2017-12-14T07:39:32.172Z,30
2017-12-14T07:40:31.878Z,20
2017-12-14T07:41:32.416Z,15
2017-12-14T07:42:32.144Z,15
2017-12-14T07:43:32.093Z,10
2017-12-14T07:44:32.102Z,10
2017-12-14T07:45:32.343Z,10
2017-12-14T07:46:32.047Z,15
2017-12-14T07:47:32.030Z,15
2017-12-14T07:48:31.751Z,15
2017-12-14T07:49:32.276Z,25
2017-12-14T07:50:32.269Z,30
2017-12-14T07:51:31.683Z,30
2017-12-14T07:52:31.691Z,35
2017-12-14T07:53:31.929Z,35
2017-12-14T07:54:31.930Z,35
2017-12-14T07:55:32.708Z,35
2017-12-14T07:56:31.874Z,35
2017-12-14T07:57:31.886Z,30
2017-12-14T07:58:32.108Z,25
2017-12-14T07:59:31.551Z,30
2017-12-14T08:00:31.551Z,35
2017-12-14T08:01:31.796Z,40
2017-12-14T08:02:31.493Z,30
2017-12-14T08:03:31.750Z,30
2017-12-14T08:04:31.729Z,30
2017-12-14T08:05:31.989Z,40
2017-12-14T08:06:32.511Z,35
2017-12-14T08:07:32.226Z,25
2017-12-14T08:08:31.668Z,35
2017-12-14T08:09:32.191Z,35
2017-12-14T08:10:31.354Z,50
2017-12-14T08:11:32.178Z,85
2017-12-14T08:12:31.608Z,90
2017-12-14T08:13:31.851Z,80
2017-12-14T08:14:31.568Z,70
2017-12-14T08:15:31.534Z,50
2017-12-14T08:16:31.524Z,40
2017-12-14T08:17:31.252Z,40
2017-12-14T08:18:31.223Z,40
2017-12-14T08:19:31.738Z,40
2017-12-14T08:20:31.450Z,35
2017-12-14T08:21:31.724Z,40
2017-12-14T08:22:31.954Z,40
2017-12-14T08:23:31.129Z,50
2017-12-14T08:24:31.668Z,50
2017-12-14T08:25:31.091Z,45
2017-12-14T08:26:31.348Z,40
2017-12-14T08:27:31.069Z,40
2017-12-14T08:28:31.039Z,50
2017-12-14T08:29:31.567Z,45
2017-12-14T08:30:31.342Z,40
2017-12-14T08:31:31.805Z,25
2017-12-14T08:32:31.260Z,40
2017-12-14T08:33:32.038Z,45
2017-12-14T08:34:30.944Z,60
2017-12-14T08:35:30.918Z,70
2017-12-14T08:36:30.914Z,75
2017-12-14T08:37:31.156Z,95
2017-12-14T08:38:31.404Z,95
2017-12-14T08:39:31.121Z,115
2017-12-14T08:40:30.834Z,110
2017-12-14T08:41:31.083Z,80
2017-12-14T08:42:31.077Z,80
2017-12-14T08:43:31.324Z,75
2017-12-14T08:44:31.326Z,75
2017-12-14T08:45:31.557Z,80
2017-12-14T08:46:30.998Z,85
2017-12-14T08:47:31.268Z,95
2017-12-14T08:48:30.709Z,95
2017-12-14T08:49:31.221Z,70
2017-12-14T08:50:31.483Z,55
2017-12-14T08:51:31.181Z,45
2017-12-14T08:52:30.617Z,55
2017-12-14T08:53:31.148Z,55
2017-12-14T08:54:31.404Z,75
2017-12-14T08:55:30.566Z,65
2017-12-14T08:56:31.096Z,55
2017-12-14T08:57:31.078Z,65
2017-12-14T08:58:31.374Z,80
2017-12-14T08:59:30.778Z,65
2017-12-14T09:00:31.300Z,80
2017-12-14T09:01:30.740Z,100
2017-12-14T09:02:30.727Z,135
2017-12-14T09:03:30.703Z,160
2017-12-14T09:04:30.686Z,175
2017-12-14T09:05:30.665Z,170
2017-12-14T09:06:30.669Z,175
2017-12-14T09:07:30.384Z,120
2017-12-14T09:08:30.349Z,105
2017-12-14T09:09:30.595Z,105
2017-12-14T09:10:30.309Z,105
2017-12-14T09:11:30.861Z,80
2017-12-14T09:12:30.840Z,65
2017-12-14T09:13:30.681Z,65
2017-12-14T09:14:31.012Z,60
2017-12-14T09:15:30.492Z,65
2017-12-14T09:16:30.746Z,75
2017-12-14T09:17:30.770Z,80
2017-12-14T09:18:30.735Z,75
2017-12-14T09:19:30.699Z,65
2017-12-14T09:20:30.412Z,65
2017-12-14T09:21:30.388Z,70
2017-12-14T09:22:30.112Z,80
2017-12-14T09:23:30.626Z,65
2017-12-14T09:24:30.627Z,65
2017-12-14T09:25:30.342Z,70
2017-12-14T09:26:30.030Z,65
2017-12-14T09:27:30.554Z,70
2017-12-14T09:28:30.597Z,75
2017-12-14T09:29:30.006Z,70
2017-12-14T09:30:30.507Z,70
2017-12-14T09:31:30.224Z,70
2017-12-14T09:32:30.201Z,70
2017-12-14T09:33:30.738Z,50
2017-12-14T09:34:30.446Z,50
2017-12-14T09:35:29.881Z,50
2017-12-14T09:36:29.858Z,50
2017-12-14T09:37:30.388Z,55
2017-12-14T09:38:30.098Z,55
2017-12-14T09:39:29.814Z,60
2017-12-14T09:40:30.357Z,50
2017-12-14T09:41:30.055Z,50
2017-12-14T09:42:30.318Z,55
2017-12-14T09:43:30.301Z,55
2017-12-14T09:44:30.273Z,60
2017-12-14T09:45:30.243Z,55
2017-12-14T09:46:30.263Z,50
2017-12-14T09:47:30.485Z,65
2017-12-14T09:48:29.652Z,65
2017-12-14T09:49:30.204Z,55
2017-12-14T09:50:29.904Z,65
2017-12-14T09:51:29.598Z,65
2017-12-14T09:52:30.694Z,70
2017-12-14T09:53:29.871Z,65
2017-12-14T09:54:29.827Z,65
2017-12-14T09:55:29.815Z,85
2017-12-14T09:56:30.333Z,100
2017-12-14T09:57:30.311Z,95
2017-12-14T09:58:30.057Z,95
2017-12-14T09:59:30.011Z,100
2017-12-14T10:00:29.720Z,90
2017-12-14T10:01:29.700Z,85
2017-12-14T10:02:29.411Z,90
2017-12-14T10:03:29.671Z,80
2017-12-14T10:04:30.193Z,90
2017-12-14T10:05:29.902Z,85
2017-12-14T10:06:29.634Z,90
2017-12-14T10:07:29.861Z,90
2017-12-14T10:08:29.867Z,110
2017-12-14T10:09:29.836Z,100
2017-12-14T10:10:29.268Z,110
2017-12-14T10:11:29.526Z,135
2017-12-14T10:12:29.238Z,125
2017-12-14T10:13:29.490Z,110
2017-12-14T10:14:29.197Z,100
2017-12-14T10:15:29.201Z,130
2017-12-14T10:16:29.716Z,185
2017-12-14T10:17:29.428Z,180
2017-12-14T10:18:29.431Z,185
2017-12-14T10:19:29.391Z,170
2017-12-14T10:20:29.383Z,175
2017-12-14T10:21:29.365Z,185
2017-12-14T10:22:29.614Z,190
2017-12-14T10:23:30.128Z,160
2017-12-14T10:24:29.594Z,155
2017-12-14T10:25:29.284Z,165
2017-12-14T10:26:29.286Z,150
2017-12-14T10:27:29.515Z,150
2017-12-14T10:28:29.514Z,145
2017-12-14T10:29:29.267Z,140
2017-12-14T10:30:29.203Z,115
2017-12-14T10:31:30.056Z,145
2017-12-14T10:32:29.709Z,115
2017-12-14T10:33:29.459Z,125
2017-12-14T10:34:28.892Z,125
2017-12-14T10:35:29.410Z,135
2017-12-14T10:36:29.107Z,140
2017-12-14T10:37:29.369Z,140
2017-12-14T10:38:28.791Z,160
2017-12-14T10:39:29.337Z,145
2017-12-14T10:40:29.300Z,125
2017-12-14T10:41:29.011Z,140
2017-12-14T10:42:29.305Z,115
2017-12-14T10:43:29.539Z,145
2017-12-14T10:44:29.247Z,130
2017-12-14T10:45:29.768Z,120
2017-12-14T10:46:28.924Z,110
2017-12-14T10:47:29.752Z,125
2017-12-14T10:48:29.190Z,135
2017-12-14T10:49:29.153Z,130
2017-12-14T10:50:29.148Z,135
2017-12-14T10:51:28.842Z,145
2017-12-14T10:52:29.108Z,155
2017-12-14T10:53:29.124Z,140
2017-12-14T10:54:29.330Z,120
2017-12-14T10:55:29.069Z,125
2017-12-14T10:56:28.774Z,115
2017-12-14T10:57:28.750Z,125
2017-12-14T10:58:28.732Z,125
2017-12-14T10:59:28.711Z,100
2017-12-14T11:00:28.697Z,110
2017-12-14T11:01:28.964Z,115
2017-12-14T11:02:28.666Z,95
2017-12-14T11:03:28.650Z,115
2017-12-14T11:04:28.644Z,130
2017-12-14T11:05:28.972Z,115
2017-12-14T11:06:28.323Z,105
2017-12-14T11:07:29.142Z,100
2017-12-14T11:08:28.851Z,125
2017-12-14T11:09:28.280Z,155
2017-12-14T11:10:28.257Z,165
2017-12-14T11:11:28.242Z,155
2017-12-14T11:12:28.770Z,150
2017-12-14T11:13:29.128Z,165
2017-12-14T11:14:28.732Z,160
2017-12-14T11:15:28.464Z,130
2017-12-14T11:16:28.702Z,120
2017-12-14T11:17:28.411Z,130
2017-12-14T11:18:28.148Z,140
2017-12-14T11:19:28.111Z,140
2017-12-14T11:20:28.092Z,110
2017-12-14T11:21:28.096Z,130
2017-12-14T11:22:28.608Z,135
2017-12-14T11:23:28.584Z,140
2017-12-14T11:24:28.589Z,185
2017-12-14T11:25:28.275Z,175
2017-12-14T11:26:27.991Z,125
2017-12-14T11:27:28.541Z,120
2017-12-14T11:28:28.228Z,105
2017-12-14T11:29:28.221Z,130
2017-12-14T11:30:28.472Z,130
2017-12-14T11:31:28.178Z,100
2017-12-14T11:32:28.168Z,90
2017-12-14T11:33:28.159Z,125
2017-12-14T11:34:28.154Z,125
2017-12-14T11:35:28.123Z,120
2017-12-14T11:36:28.119Z,115
2017-12-14T11:37:28.376Z,135
2017-12-14T11:38:28.657Z,100
2017-12-14T11:39:27.779Z,115
2017-12-14T11:40:28.046Z,90
2017-12-14T11:41:27.752Z,75
2017-12-14T11:42:28.273Z,80
2017-12-14T11:43:27.982Z,70
2017-12-14T11:44:28.544Z,70
2017-12-14T11:45:27.974Z,60
2017-12-14T11:46:27.939Z,55
2017-12-14T11:47:27.666Z,60
2017-12-14T11:48:28.445Z,65
2017-12-14T11:49:28.434Z,65
2017-12-14T11:50:28.142Z,75
2017-12-14T11:51:27.852Z,65
2017-12-14T11:52:28.114Z,65
2017-12-14T11:53:27.544Z,55
2017-12-14T11:54:27.802Z,55
2017-12-14T11:55:27.827Z,70
2017-12-14T11:56:27.768Z,85
2017-12-14T11:57:27.858Z,60
2017-12-14T11:58:27.751Z,65
2017-12-14T11:59:27.988Z,100
2017-12-14T12:00:27.981Z,105
2017-12-14T12:01:27.961Z,135
2017-12-14T12:02:27.399Z,155
2017-12-14T12:03:27.409Z,160
2017-12-14T12:04:27.637Z,150
2017-12-14T12:05:28.181Z,130
2017-12-14T12:06:28.433Z,110
2017-12-14T12:07:27.595Z,115
2017-12-14T12:08:27.844Z,140
2017-12-14T12:09:27.280Z,145
2017-12-14T12:10:28.449Z,135
2017-12-14T12:11:27.529Z,135
2017-12-14T12:12:27.230Z,130
2017-12-14T12:13:27.761Z,125
2017-12-14T12:14:28.031Z,115
2017-12-14T12:15:27.525Z,150
2017-12-14T12:16:28.073Z,200
2017-12-14T12:17:27.452Z,175
2017-12-14T12:18:27.689Z,180
2017-12-14T12:19:27.674Z,160
2017-12-14T12:20:27.643Z,160
2017-12-14T12:21:27.086Z,150
2017-12-14T12:22:27.613Z,160
2017-12-14T12:23:27.608Z,175
2017-12-14T12:24:27.856Z,145
2017-12-14T12:25:28.112Z,140
2017-12-14T12:26:27.383Z,140
2017-12-14T12:27:27.806Z,145
2017-12-14T12:28:27.543Z,100
2017-12-14T12:29:27.247Z,80
2017-12-14T12:30:27.218Z,80
2017-12-14T12:31:26.932Z,110
2017-12-14T12:32:27.026Z,120
2017-12-14T12:33:27.162Z,115
2017-12-14T12:34:27.191Z,100
2017-12-14T12:35:27.145Z,75
2017-12-14T12:36:27.662Z,65
2017-12-14T12:37:27.393Z,60
2017-12-14T12:38:26.813Z,60
2017-12-14T12:39:27.066Z,50
2017-12-14T12:40:26.779Z,35
2017-12-14T12:41:27.047Z,35
2017-12-14T12:42:27.220Z,30
2017-12-14T12:43:26.758Z,35
2017-12-14T12:44:26.986Z,30
2017-12-14T12:45:27.276Z,35
2017-12-14T12:46:26.962Z,35
2017-12-14T12:47:26.664Z,40
2017-12-14T12:48:27.254Z,40
2017-12-14T12:49:26.634Z,50
2017-12-14T12:50:26.642Z,50
2017-12-14T12:51:26.616Z,60
2017-12-14T12:52:26.862Z,60
2017-12-14T12:53:27.391Z,60
2017-12-14T12:54:26.833Z,55
2017-12-14T12:55:26.822Z,50
2017-12-14T12:56:27.018Z,60
2017-12-14T12:57:27.064Z,65
2017-12-14T12:58:26.787Z,60
2017-12-14T12:59:26.742Z,50
2017-12-14T13:00:27.000Z,60
2017-12-14T13:01:26.709Z,50
2017-12-14T13:02:27.001Z,65
2017-12-14T13:03:26.971Z,65
2017-12-14T13:04:26.665Z,60
2017-12-14T13:05:26.647Z,55
2017-12-14T13:06:27.197Z,75
2017-12-14T13:07:26.908Z,70
2017-12-14T13:08:26.601Z,65
2017-12-14T13:09:26.314Z,60
2017-12-14T13:10:27.380Z,60
2017-12-14T13:11:26.833Z,95
2017-12-14T13:12:27.081Z,105
2017-12-14T13:13:26.786Z,125
2017-12-14T13:14:26.279Z,120
2017-12-14T13:15:26.480Z,105
2017-12-14T13:16:26.191Z,110
2017-12-14T13:17:26.993Z,150
2017-12-14T13:18:26.706Z,170
2017-12-14T13:19:26.442Z,110
2017-12-14T13:20:26.156Z,95
2017-12-14T13:21:26.684Z,105
2017-12-14T13:22:26.383Z,70
2017-12-14T13:23:26.366Z,100
2017-12-14T13:24:26.420Z,80
2017-12-14T13:25:26.052Z,80
2017-12-14T13:26:26.310Z,80
2017-12-14T13:27:26.287Z,90
2017-12-14T13:28:26.344Z,80
2017-12-14T13:29:26.250Z,75
2017-12-14T13:30:26.266Z,75
2017-12-14T13:31:26.222Z,75
2017-12-14T13:32:26.499Z,80
2017-12-14T13:33:26.195Z,65
2017-12-14T13:34:26.447Z,65
2017-12-14T13:35:26.180Z,70
2017-12-14T13:36:26.155Z,70
2017-12-14T13:37:26.138Z,70
2017-12-14T13:38:26.114Z,75
2017-12-14T13:39:26.093Z,85
2017-12-14T13:40:26.346Z,80
2017-12-14T13:41:26.063Z,70
2017-12-14T13:42:26.597Z,60
2017-12-14T13:43:26.297Z,60
2017-12-14T13:44:26.017Z,60
2017-12-14T13:45:26.419Z,65
2017-12-14T13:46:25.991Z,65
2017-12-14T13:47:25.969Z,70
2017-12-14T13:48:25.675Z,70
2017-12-14T13:49:25.940Z,70
2017-12-14T13:50:26.219Z,70
2017-12-14T13:51:26.458Z,70
2017-12-14T13:52:26.151Z,70
2017-12-14T13:53:25.879Z,60
2017-12-14T13:54:25.590Z,55
2017-12-14T13:55:25.857Z,45
2017-12-14T13:56:25.809Z,50
2017-12-14T13:57:25.812Z,60
2017-12-14T13:58:25.524Z,60
2017-12-14T13:59:26.308Z,50
2017-12-14T14:00:25.474Z,45
2017-12-14T14:01:25.474Z,45
2017-12-14T14:02:25.736Z,40
2017-12-14T14:03:25.428Z,35
2017-12-14T14:04:25.954Z,25
2017-12-14T14:05:25.392Z,20
2017-12-14T14:06:25.429Z,25
2017-12-14T14:07:25.363Z,40
2017-12-14T14:08:25.720Z,50
2017-12-14T14:09:25.945Z,65
2017-12-14T14:10:26.126Z,60
2017-12-14T14:11:25.862Z,60
2017-12-14T14:12:25.550Z,55
2017-12-14T14:13:25.528Z,50
2017-12-14T14:14:25.523Z,50
2017-12-14T14:15:25.496Z,50
2017-12-14T14:16:25.525Z,45
2017-12-14T14:17:25.522Z,45
2017-12-14T14:18:25.458Z,35
2017-12-14T14:19:25.697Z,35
2017-12-14T14:20:25.689Z,40
2017-12-14T14:21:25.401Z,40
2017-12-14T14:22:25.655Z,40
2017-12-14T14:23:25.372Z,35
2017-12-14T14:24:25.638Z,35
2017-12-14T14:25:25.064Z,40